Open Full Screen Window  High Contrast Mode
March 06, 2015 9:07 AM EST
Weather Information
Wind Direction
  ---
Wind Speed
  00 kt (0 mph)
Wind Gust
  00 kt (0 mph)
Altimeter
30.56 in
Visibility
10 SM
Temperature
-12° C
10° F
Dewpoint
-13° C
F
Humidity
92%
1hr Rain Fall
00.00 in.
24hr Rain Fall
00.00 in.
Sky Condition
Clear
VFR

METAR KI69 061407Z AUTO 00000KT 10SM CLR M12/M13 A3056 RMK AO1

*Background is not an actual portrayal of the airport.